Time;durP1;ratioP1;P1;durP2;ratioP2;P2;SDS_P1;SDS_P2;PMS_P1;PMS_P2;Temp;Humidity;BMP_temperature;BMP_pressure;BME280_temperature;BME280_humidity;BME280_pressure;Samples;Min_cycle;Max_cycle;Signal;HPM_P1;HPM_P2
2023/07/04 00:01:22;;;;;;;2.70;1.93;;;20.40;98.00;;;;;;4972110;28;20475;-70
2023/07/04 00:03:53;;;;;;;3.10;2.00;;;20.40;98.00;;;;;;4972307;28;20807;-70
2023/07/04 00:06:21;;;;;;;3.43;2.20;;;20.40;98.00;;;;;;4972427;28;20461;-71
2023/07/04 00:08:50;;;;;;;3.30;2.03;;;20.40;98.00;;;;;;4972145;28;20457;-70
2023/07/04 00:11:17;;;;;;;2.53;1.90;;;20.30;98.00;;;;;;4972370;28;20964;-70
2023/07/04 00:13:46;;;;;;;3.60;2.30;;;20.20;98.00;;;;;;4972239;28;20820;-70
2023/07/04 00:16:15;;;;;;;3.00;2.20;;;20.10;98.00;;;;;;4972211;28;20469;-70
2023/07/04 00:18:42;;;;;;;2.70;1.90;;;20.00;98.00;;;;;;4972012;28;20528;-70
2023/07/04 00:21:14;;;;;;;2.27;1.70;;;20.10;98.00;;;;;;4971843;28;20469;-70
2023/07/04 00:23:45;;;;;;;1.90;1.70;;;20.10;98.00;;;;;;4972161;28;20500;-70
2023/07/04 00:26:15;;;;;;;2.63;1.80;;;20.10;98.00;;;;;;4972158;28;20468;-70
2023/07/04 00:28:49;;;;;;;2.67;1.80;;;20.00;98.00;;;;;;4972244;28;20556;-71
2023/07/04 00:31:18;;;;;;;2.47;1.83;;;20.00;98.00;;;;;;4972758;28;21018;-70
2023/07/04 00:33:46;;;;;;;5.37;1.90;;;20.00;98.00;;;;;;4972464;28;20460;-70
2023/07/04 00:36:16;;;;;;;3.63;2.07;;;19.90;98.00;;;;;;4972076;28;20508;-71
2023/07/04 00:38:44;;;;;;;2.37;1.90;;;19.80;98.00;;;;;;4971894;28;21018;-70
2023/07/04 00:41:13;;;;;;;3.50;1.87;;;19.80;98.00;;;;;;4972370;28;20468;-71
2023/07/04 00:43:58;;;;;;;1.83;1.60;;;19.80;98.00;;;;;;4974910;28;20457;-70
2023/07/04 00:46:37;;;;;;;2.13;1.63;;;19.80;98.00;;;;;;4975712;28;20457;-70
2023/07/04 00:49:19;;;;;;;3.10;1.97;;;19.70;98.00;;;;;;4975828;28;20467;-71
2023/07/04 00:51:50;;;;;;;1.83;1.70;;;19.70;98.00;;;;;;4975784;28;20449;-70
2023/07/04 00:54:19;;;;;;;3.20;1.73;;;19.70;98.00;;;;;;4975714;28;20465;-70
2023/07/04 00:56:47;;;;;;;2.90;1.70;;;19.80;98.00;;;;;;4974788;28;20504;-71
2023/07/04 00:59:19;;;;;;;2.20;1.80;;;19.90;98.00;;;;;;4975433;28;20572;-71
2023/07/04 01:01:46;;;;;;;2.67;1.90;;;19.80;98.00;;;;;;4975343;28;20460;-71
2023/07/04 01:04:14;;;;;;;2.27;1.83;;;19.80;98.00;;;;;;4975294;28;20867;-70
2023/07/04 01:06:47;;;;;;;3.10;2.00;;;19.90;98.00;;;;;;4975604;28;20454;-70
2023/07/04 01:09:17;;;;;;;2.67;1.80;;;19.90;98.00;;;;;;4975478;28;20453;-70
2023/07/04 01:11:49;;;;;;;1.77;1.63;;;19.90;98.00;;;;;;4975165;28;20983;-70
2023/07/04 01:14:24;;;;;;;4.37;2.30;;;20.00;98.00;;;;;;4975097;28;20466;-70
2023/07/04 01:16:54;;;;;;;2.57;1.77;;;19.90;98.00;;;;;;4975280;28;20547;-70
2023/07/04 01:19:27;;;;;;;3.17;1.80;;;19.90;98.00;;;;;;4974842;28;20485;-70
2023/07/04 01:22:07;;;;;;;2.30;1.80;;;19.90;98.00;;;;;;4974971;28;20523;-71
2023/07/04 01:24:44;;;;;;;2.87;2.03;;;19.90;98.00;;;;;;4975044;28;20460;-70
2023/07/04 01:27:15;;;;;;;4.90;2.10;;;20.10;98.00;;;;;;4974882;28;20468;-72
2023/07/04 01:29:43;;;;;;;4.07;2.33;;;20.10;98.00;;;;;;4973852;28;20557;-70
2023/07/04 01:32:11;;;;;;;3.33;2.00;;;20.00;98.00;;;;;;4974781;28;20803;-70
2023/07/04 01:34:38;;;;;;;2.83;1.83;;;19.90;98.00;;;;;;4974912;28;20878;-71
2023/07/04 01:37:06;;;;;;;3.47;2.00;;;19.90;98.00;;;;;;4974690;28;20854;-71
2023/07/04 01:39:33;;;;;;;2.73;2.10;;;19.70;98.00;;;;;;4974740;28;20489;-70
2023/07/04 01:42:04;;;;;;;2.40;1.90;;;19.80;98.00;;;;;;4974691;28;20480;-71
2023/07/04 01:44:33;;;;;;;2.57;2.03;;;19.90;98.00;;;;;;4975190;28;20857;-70
2023/07/04 01:47:02;;;;;;;3.77;2.20;;;19.90;98.00;;;;;;4973021;28;20465;-70
2023/07/04 01:49:32;;;;;;;2.77;2.13;;;19.80;98.00;;;;;;4974705;28;20547;-71
2023/07/04 01:51:59;;;;;;;5.73;2.33;;;19.80;98.00;;;;;;4973075;28;20797;-71
2023/07/04 01:54:27;;;;;;;4.73;2.33;;;19.90;98.00;;;;;;4972701;28;20988;-70
2023/07/04 01:56:56;;;;;;;2.43;1.83;;;19.90;98.00;;;;;;4973039;28;20489;-71
2023/07/04 01:59:24;;;;;;;3.60;2.43;;;19.80;98.00;;;;;;4974165;28;20489;-70
2023/07/04 02:01:52;;;;;;;4.27;2.50;;;19.70;98.00;;;;;;4974105;28;20465;-70
2023/07/04 02:04:19;;;;;;;2.20;2.00;;;19.70;98.00;;;;;;4974115;28;20449;-70
2023/07/04 02:06:47;;;;;;;2.70;2.03;;;19.60;98.00;;;;;;4973013;28;20457;-70
2023/07/04 02:09:16;;;;;;;7.77;2.23;;;19.70;98.00;;;;;;4973972;28;20465;-70
2023/07/04 02:11:43;;;;;;;2.40;2.03;;;19.60;98.00;;;;;;4974153;28;20457;-70
2023/07/04 02:14:10;;;;;;;2.97;2.10;;;19.70;98.00;;;;;;4974080;28;20508;-71
2023/07/04 02:16:37;;;;;;;3.80;1.90;;;19.80;98.00;;;;;;4973725;28;20472;-70
2023/07/04 02:19:05;;;;;;;5.23;2.40;;;19.90;98.00;;;;;;4974003;28;20881;-70
2023/07/04 02:21:34;;;;;;;3.33;2.30;;;19.90;98.00;;;;;;4974163;28;20469;-70
2023/07/04 02:24:01;;;;;;;3.97;2.33;;;19.80;98.00;;;;;;4973621;28;20468;-71
2023/07/04 02:26:28;;;;;;;4.07;2.23;;;19.70;98.00;;;;;;4973972;28;20462;-70
2023/07/04 02:28:56;;;;;;;3.27;2.17;;;19.60;98.00;;;;;;4973824;28;20461;-71
2023/07/04 02:31:24;;;;;;;2.80;2.20;;;19.60;98.00;;;;;;4973799;28;20460;-70
2023/07/04 02:33:51;;;;;;;8.70;2.70;;;19.60;98.00;;;;;;4973729;28;20500;-71
2023/07/04 02:36:20;;;;;;;2.83;2.03;;;19.60;98.00;;;;;;4973786;28;20807;-70
2023/07/04 02:38:47;;;;;;;5.27;2.40;;;19.60;98.00;;;;;;4973770;28;20488;-70
2023/07/04 02:41:14;;;;;;;2.90;2.27;;;19.60;98.00;;;;;;4973691;28;20536;-70
2023/07/04 02:43:41;;;;;;;4.90;2.33;;;19.60;98.00;;;;;;4973304;28;20464;-71
2023/07/04 02:46:16;;;;;;;3.53;2.23;;;19.60;98.00;;;;;;4973087;28;20606;-71
2023/07/04 02:48:45;;;;;;;3.30;2.20;;;19.50;98.00;;;;;;4973422;28;20715;-70
2023/07/04 02:51:12;;;;;;;5.40;2.40;;;19.60;98.00;;;;;;4973421;28;20453;-70
2023/07/04 02:53:41;;;;;;;3.43;2.20;;;19.70;98.00;;;;;;4973502;28;20469;-70
2023/07/04 02:56:08;;;;;;;4.20;2.30;;;19.70;98.00;;;;;;4973235;28;20457;-70
2023/07/04 02:58:35;;;;;;;2.93;2.20;;;19.60;98.00;;;;;;4973170;28;20557;-70
2023/07/04 03:01:04;;;;;;;3.90;2.43;;;19.50;98.00;;;;;;4971849;28;20452;-71
2023/07/04 03:03:31;;;;;;;3.43;2.03;;;19.50;98.00;;;;;;4973105;28;20460;-70
2023/07/04 03:05:59;;;;;;;2.93;2.03;;;19.40;98.00;;;;;;4972292;28;20959;-70
2023/07/04 03:08:26;;;;;;;3.30;2.37;;;19.40;98.00;;;;;;4972960;28;20565;-70
2023/07/04 03:10:55;;;;;;;5.50;2.40;;;19.50;98.00;;;;;;4973023;28;20469;-71
2023/07/04 03:13:22;;;;;;;3.67;2.40;;;19.50;98.00;;;;;;4973006;28;20454;-70
2023/07/04 03:15:49;;;;;;;3.43;2.40;;;19.50;98.00;;;;;;4972889;28;20461;-70
2023/07/04 03:18:16;;;;;;;5.80;2.20;;;19.60;98.00;;;;;;4973053;28;20469;-70
2023/07/04 03:20:43;;;;;;;3.17;2.03;;;19.50;98.00;;;;;;4972937;28;20893;-70
2023/07/04 03:23:10;;;;;;;4.63;2.30;;;19.40;98.00;;;;;;4972826;28;20465;-70
2023/07/04 03:25:38;;;;;;;3.60;2.30;;;19.40;98.00;;;;;;4971807;28;20863;-70
2023/07/04 03:28:06;;;;;;;4.50;2.20;;;19.50;98.00;;;;;;4972778;28;20465;-70
2023/07/04 03:30:33;;;;;;;7.60;2.07;;;19.40;98.00;;;;;;4973086;28;20457;-70
2023/07/04 03:33:00;;;;;;;3.70;2.40;;;19.40;98.00;;;;;;4972775;28;20458;-70
2023/07/04 03:35:27;;;;;;;2.67;2.10;;;19.30;98.00;;;;;;4972861;28;20885;-70
2023/07/04 03:37:55;;;;;;;3.90;2.27;;;19.30;98.00;;;;;;4972662;28;20520;-70
2023/07/04 03:40:22;;;;;;;3.23;2.00;;;19.20;98.00;;;;;;4972602;28;20580;-70
2023/07/04 03:42:49;;;;;;;2.47;1.93;;;19.20;98.00;;;;;;4973129;28;20461;-69
2023/07/04 03:45:18;;;;;;;3.30;2.10;;;19.20;98.00;;;;;;4972776;28;20520;-70
2023/07/04 03:47:48;;;;;;;3.33;2.13;;;19.20;98.00;;;;;;4972529;28;20549;-70
2023/07/04 03:50:15;;;;;;;2.63;1.90;;;19.10;98.00;;;;;;4972207;28;20830;-70
2023/07/04 03:52:42;;;;;;;2.70;1.77;;;19.30;98.00;;;;;;4972548;28;20900;-70
2023/07/04 03:55:09;;;;;;;2.50;1.90;;;19.40;98.00;;;;;;4972399;28;20469;-71
2023/07/04 03:57:36;;;;;;;2.47;1.90;;;19.30;98.00;;;;;;4972328;28;20462;-70
2023/07/04 04:00:08;;;;;;;3.17;2.10;;;19.20;98.00;;;;;;4972466;28;20903;-71
2023/07/04 04:02:37;;;;;;;2.60;1.97;;;19.20;98.00;;;;;;4972288;28;20520;-70
2023/07/04 04:05:04;;;;;;;6.03;2.23;;;19.40;98.00;;;;;;4972207;28;20449;-70
2023/07/04 04:07:31;;;;;;;3.03;2.20;;;19.40;98.00;;;;;;4971830;28;21010;-70
2023/07/04 04:09:59;;;;;;;4.70;2.63;;;19.50;98.00;;;;;;4972464;28;20458;-70
2023/07/04 04:12:27;;;;;;;3.23;2.00;;;19.40;98.00;;;;;;4972186;28;20465;-70
2023/07/04 04:14:54;;;;;;;3.60;2.40;;;19.30;98.00;;;;;;4972222;28;20453;-70
2023/07/04 04:17:21;;;;;;;3.67;2.20;;;19.30;98.00;;;;;;4974791;28;20457;-70
2023/07/04 04:19:49;;;;;;;4.20;2.23;;;19.40;98.00;;;;;;4976017;28;20481;-70
2023/07/04 04:22:19;;;;;;;2.73;2.00;;;19.40;98.00;;;;;;4976032;28;20464;-70
2023/07/04 04:24:46;;;;;;;3.00;2.00;;;19.20;98.00;;;;;;4975739;28;20525;-70
2023/07/04 04:27:15;;;;;;;3.07;1.97;;;19.10;98.00;;;;;;4976213;28;20461;-70
2023/07/04 04:29:42;;;;;;;2.20;1.93;;;19.10;98.00;;;;;;4976115;28;21023;-70
2023/07/04 04:32:09;;;;;;;2.47;1.77;;;19.10;98.00;;;;;;4975945;28;20464;-70
2023/07/04 04:34:36;;;;;;;5.20;2.33;;;19.30;98.00;;;;;;4975933;28;20459;-70
2023/07/04 04:37:05;;;;;;;4.43;2.73;;;19.40;98.00;;;;;;4975773;28;20987;-71
2023/07/04 04:39:32;;;;;;;5.60;2.20;;;19.40;98.00;;;;;;4975651;28;20477;-70
2023/07/04 04:41:59;;;;;;;2.47;1.97;;;19.40;98.00;;;;;;4975757;28;20461;-70
2023/07/04 04:44:26;;;;;;;2.53;1.80;;;19.60;98.00;;;;;;4975625;28;20461;-70
2023/07/04 04:46:53;;;;;;;3.90;2.00;;;19.70;98.00;;;;;;4975627;28;20500;-70
2023/07/04 04:49:21;;;;;;;3.53;2.13;;;19.70;98.00;;;;;;4975548;28;20467;-70
2023/07/04 04:51:51;;;;;;;2.80;2.03;;;19.80;98.00;;;;;;4975549;28;20458;-71
2023/07/04 04:54:20;;;;;;;3.40;2.30;;;19.80;98.00;;;;;;4975289;28;20485;-70
2023/07/04 04:56:47;;;;;;;4.17;2.30;;;19.90;98.00;;;;;;4975463;28;20465;-70
2023/07/04 04:59:15;;;;;;;3.50;1.90;;;20.00;98.00;;;;;;4975454;28;20457;-70
2023/07/04 05:01:42;;;;;;;9.60;2.10;;;20.10;98.00;;;;;;4975298;28;20465;-71
2023/07/04 05:04:09;;;;;;;2.40;1.80;;;20.10;98.00;;;;;;4975103;28;21039;-70
2023/07/04 05:06:36;;;;;;;3.20;2.20;;;20.20;98.00;;;;;;4975517;28;20490;-71
2023/07/04 05:09:04;;;;;;;3.07;1.97;;;20.20;98.00;;;;;;4975148;28;20457;-70
2023/07/04 05:11:33;;;;;;;3.53;2.13;;;20.20;98.00;;;;;;4975314;28;20556;-71
2023/07/04 05:14:01;;;;;;;3.00;1.80;;;20.30;98.00;;;;;;4975005;28;20508;-70
2023/07/04 05:16:28;;;;;;;1.90;1.70;;;20.30;98.00;;;;;;4975218;28;20508;-70
2023/07/04 05:18:55;;;;;;;2.63;1.80;;;20.30;98.00;;;;;;4975417;28;20465;-70
2023/07/04 05:21:24;;;;;;;3.40;1.80;;;20.30;98.00;;;;;;4975288;28;20496;-70
2023/07/04 05:23:53;;;;;;;3.27;2.00;;;20.40;98.00;;;;;;4975310;28;20457;-70
2023/07/04 05:26:22;;;;;;;2.80;1.93;;;20.40;98.00;;;;;;4974993;28;21027;-70
2023/07/04 05:28:53;;;;;;;2.13;1.77;;;20.30;98.00;;;;;;4974203;28;20869;-70
2023/07/04 05:31:22;;;;;;;2.67;1.97;;;20.30;98.00;;;;;;4974832;28;20976;-70
2023/07/04 05:33:49;;;;;;;2.33;1.80;;;20.40;98.00;;;;;;4974741;28;20465;-70
2023/07/04 05:36:19;;;;;;;2.40;1.90;;;20.50;98.00;;;;;;4974748;28;20460;-71
2023/07/04 05:38:48;;;;;;;2.30;1.83;;;20.60;98.00;;;;;;4974714;28;20461;-71
2023/07/04 05:41:18;;;;;;;2.50;1.80;;;20.60;98.00;;;;;;4974522;28;20504;-71
2023/07/04 05:43:45;;;;;;;3.00;2.10;;;20.60;98.00;;;;;;4974568;28;20465;-70
2023/07/04 05:46:24;;;;;;;4.47;2.00;;;20.80;98.00;;;;;;4974339;28;20884;-71
2023/07/04 05:48:52;;;;;;;2.93;1.83;;;20.90;98.00;;;;;;4974412;28;20559;-70
2023/07/04 05:51:21;;;;;;;3.10;2.10;;;21.10;98.00;;;;;;4974689;28;20462;-71
2023/07/04 05:53:50;;;;;;;2.90;1.97;;;21.10;98.00;;;;;;4975294;28;20805;-70
2023/07/04 05:56:20;;;;;;;2.30;2.00;;;20.90;98.00;;;;;;4975089;28;20507;-70
2023/07/04 05:58:49;;;;;;;3.47;2.20;;;20.80;98.00;;;;;;4975252;28;20464;-70
2023/07/04 06:01:19;;;;;;;4.57;2.00;;;20.70;98.00;;;;;;4974727;28;21015;-69
2023/07/04 06:03:47;;;;;;;2.40;2.03;;;20.80;98.00;;;;;;4975156;28;20462;-69
2023/07/04 06:06:19;;;;;;;2.80;1.77;;;20.80;98.00;;;;;;4975031;28;20456;-69
2023/07/04 06:08:47;;;;;;;2.50;1.97;;;20.90;98.00;;;;;;4974985;28;20465;-69
2023/07/04 06:11:14;;;;;;;2.97;1.97;;;21.00;98.00;;;;;;4973824;28;20464;-70
2023/07/04 06:13:42;;;;;;;3.37;2.20;;;20.90;98.00;;;;;;4975086;28;20465;-69
2023/07/04 06:16:09;;;;;;;3.97;2.27;;;20.90;98.00;;;;;;4975082;28;20575;-69
2023/07/04 06:18:38;;;;;;;2.80;2.07;;;21.10;98.00;;;;;;4975004;28;20461;-70
2023/07/04 06:21:10;;;;;;;3.23;2.10;;;21.00;98.00;;;;;;4974421;28;20508;-70
2023/07/04 06:23:37;;;;;;;3.53;2.10;;;20.90;98.00;;;;;;4974077;28;20461;-70
2023/07/04 06:26:05;;;;;;;3.30;2.17;;;21.00;98.00;;;;;;4974154;28;20465;-69
2023/07/04 06:28:32;;;;;;;3.10;2.03;;;21.10;98.00;;;;;;4974615;28;20497;-69
2023/07/04 06:31:00;;;;;;;3.90;2.20;;;21.00;98.00;;;;;;4974483;28;20465;-69
2023/07/04 06:33:28;;;;;;;2.40;2.00;;;21.10;98.00;;;;;;4974417;28;20473;-68
2023/07/04 06:35:56;;;;;;;3.33;2.27;;;21.20;98.00;;;;;;4973115;28;20457;-69
2023/07/04 06:38:23;;;;;;;2.90;2.00;;;21.20;98.00;;;;;;4974570;28;20468;-68
2023/07/04 06:40:58;;;;;;;3.33;2.37;;;21.40;98.00;;;;;;4973310;28;20856;-70
2023/07/04 06:43:25;;;;;;;3.50;2.00;;;21.40;98.00;;;;;;4974467;28;20461;-68
2023/07/04 06:45:53;;;;;;;5.43;2.80;;;21.40;98.00;;;;;;4974471;28;20461;-70
2023/07/04 06:48:22;;;;;;;3.23;2.10;;;21.50;98.00;;;;;;4974317;28;20461;-69
2023/07/04 06:50:58;;;;;;;3.10;2.30;;;21.60;98.00;;;;;;4974312;28;20461;-71
2023/07/04 06:53:27;;;;;;;5.10;2.47;;;21.60;98.00;;;;;;4974182;28;20492;-64
2023/07/04 06:55:54;;;;;;;2.93;1.63;;;21.60;98.00;;;;;;4972869;28;20461;-64
2023/07/04 06:58:21;;;;;;;2.30;2.00;;;21.70;98.00;;;;;;4972867;28;20457;-64
2023/07/04 07:00:55;;;;;;;4.40;2.10;;;22.20;98.00;;;;;;4974244;28;20560;-64
2023/07/04 07:03:23;;;;;;;3.47;2.10;;;;;;;;;;4974333;28;20457;-64
2023/07/04 07:05:50;;;;;;;5.53;2.50;;;22.60;98.00;;;;;;4974204;28;20964;-63
2023/07/04 07:08:18;;;;;;;4.17;2.20;;;22.80;98.00;;;;;;4974063;28;20589;-64
2023/07/04 07:10:54;;;;;;;6.17;2.17;;;22.90;98.00;;;;;;4974134;28;20465;-64
2023/07/04 07:13:21;;;;;;;3.00;2.00;;;22.90;98.00;;;;;;4973811;28;20469;-65
2023/07/04 07:15:50;;;;;;;3.20;2.30;;;23.10;98.00;;;;;;4973725;28;20516;-64
2023/07/04 07:18:17;;;;;;;4.43;2.77;;;23.20;97.00;;;;;;4973416;28;20952;-64
2023/07/04 07:20:44;;;;;;;6.67;2.80;;;23.20;95.80;;;;;;4973411;28;20481;-64
2023/07/04 07:23:12;;;;;;;10.63;2.77;;;23.10;96.10;;;;;;4973606;28;20461;-65
2023/07/04 07:25:41;;;;;;;4.10;2.57;;;23.00;95.40;;;;;;4973317;28;20469;-65
2023/07/04 07:28:08;;;;;;;5.77;2.70;;;23.10;97.40;;;;;;4971964;28;20469;-64
2023/07/04 07:30:35;;;;;;;5.60;2.90;;;23.10;96.70;;;;;;4973280;28;20453;-64
2023/07/04 07:33:02;;;;;;;5.00;2.70;;;23.20;96.70;;;;;;4973070;28;20465;-65
2023/07/04 07:35:31;;;;;;;3.37;2.40;;;23.40;96.90;;;;;;4972105;28;20523;-65
2023/07/04 07:37:58;;;;;;;5.33;3.37;;;23.60;97.10;;;;;;4973296;28;20553;-67
2023/07/04 07:40:26;;;;;;;3.30;2.57;;;23.70;93.10;;;;;;4973090;28;20485;-66
2023/07/04 07:42:55;;;;;;;5.70;3.13;;;23.60;93.70;;;;;;4973265;28;20461;-70
2023/07/04 07:45:22;;;;;;;11.53;3.00;;;23.60;94.90;;;;;;4973221;28;20509;-66
2023/07/04 07:47:49;;;;;;;5.50;3.33;;;23.60;94.30;;;;;;4973317;28;20543;-65
2023/07/04 07:50:16;;;;;;;4.30;2.60;;;23.70;95.10;;;;;;4973270;28;20457;-69
2023/07/04 07:52:43;;;;;;;4.83;3.00;;;23.60;95.70;;;;;;4972920;28;20456;-71
2023/07/04 07:55:10;;;;;;;4.37;3.07;;;23.70;96.50;;;;;;4973292;28;20453;-69
2023/07/04 07:57:38;;;;;;;5.00;2.97;;;23.60;94.80;;;;;;4973193;28;20548;-60
2023/07/04 08:00:07;;;;;;;7.63;2.90;;;23.70;93.80;;;;;;4972097;28;20464;-71
2023/07/04 08:02:34;;;;;;;5.03;2.57;;;23.80;92.80;;;;;;4973203;28;20496;-66
2023/07/04 08:05:02;;;;;;;4.30;2.50;;;23.90;94.70;;;;;;4973177;28;20520;-68
2023/07/04 08:07:29;;;;;;;4.40;2.70;;;24.00;93.20;;;;;;4971541;28;20457;-66
2023/07/04 08:09:58;;;;;;;4.63;2.87;;;24.00;92.60;;;;;;4971154;28;20960;-66
2023/07/04 08:12:26;;;;;;;6.17;3.07;;;24.00;94.20;;;;;;4972398;28;20531;-68
2023/07/04 08:14:53;;;;;;;5.00;2.73;;;24.10;94.50;;;;;;4971093;28;20476;-66
2023/07/04 08:17:22;;;;;;;6.27;3.17;;;24.20;93.80;;;;;;4972103;28;20461;-67
2023/07/04 08:19:49;;;;;;;10.83;3.10;;;24.20;91.70;;;;;;4972155;28;20879;-66
2023/07/04 08:22:16;;;;;;;4.53;2.93;;;24.00;91.30;;;;;;4972397;28;20548;-67
2023/07/04 08:24:44;;;;;;;8.03;3.20;;;24.10;93.40;;;;;;4972536;28;20472;-66
2023/07/04 08:27:11;;;;;;;6.67;3.67;;;24.10;91.10;;;;;;4972810;28;20548;-67
2023/07/04 08:29:41;;;;;;;6.23;3.30;;;24.10;91.30;;;;;;4971404;28;20512;-67
2023/07/04 08:32:10;;;;;;;6.17;3.27;;;24.10;90.90;;;;;;4972875;28;20468;-67
2023/07/04 08:34:39;;;;;;;7.90;3.73;;;24.20;90.20;;;;;;4972598;28;20461;-67
2023/07/04 08:37:06;;;;;;;7.97;3.33;;;24.30;90.10;;;;;;4971684;28;20525;-66
2023/07/04 08:39:33;;;;;;;5.90;3.03;;;24.40;89.00;;;;;;4972668;28;20847;-66
2023/07/04 08:42:03;;;;;;;6.53;3.10;;;24.40;89.60;;;;;;4972745;28;20488;-68
2023/07/04 08:44:34;;;;;;;5.00;3.03;;;24.60;90.30;;;;;;4972639;28;20553;-67
2023/07/04 08:47:03;;;;;;;8.40;3.87;;;24.80;88.80;;;;;;4972631;28;20545;-67
2023/07/04 08:49:35;;;;;;;6.13;3.33;;;24.80;86.50;;;;;;4972769;28;20457;-69
2023/07/04 08:52:11;;;;;;;8.20;3.77;;;24.80;87.60;;;;;;4972663;28;20458;-68
2023/07/04 08:54:39;;;;;;;7.00;3.70;;;24.70;88.00;;;;;;4971385;28;20452;-68
2023/07/04 08:57:14;;;;;;;5.70;3.33;;;24.80;88.60;;;;;;4972549;28;20480;-66
2023/07/04 08:59:43;;;;;;;8.40;3.67;;;24.90;88.00;;;;;;4971856;28;21024;-66
2023/07/04 09:02:51;;;;;;;6.40;3.60;;;24.70;88.00;;;;;;4971710;28;20497;-67
2023/07/04 09:05:29;;;;;;;6.80;3.53;;;24.40;88.90;;;;;;4960401;28;20461;-64
2023/07/04 09:08:16;;;;;;;6.70;3.40;;;24.50;89.00;;;;;;4975026;28;20960;-68
2023/07/04 09:10:47;;;;;;;7.40;3.40;;;24.70;89.70;;;;;;4975725;28;20480;-67
2023/07/04 09:13:21;;;;;;;7.00;3.67;;;24.90;88.10;;;;;;4975044;28;20477;-67
2023/07/04 09:15:48;;;;;;;9.30;4.13;;;25.00;88.80;;;;;;4975184;28;20812;-73
2023/07/04 09:18:22;;;;;;;7.37;3.70;;;25.00;88.00;;;;;;4974952;28;20457;-71
2023/07/04 09:20:56;;;;;;;5.80;3.50;;;25.10;87.20;;;;;;4975133;28;20492;-72
2023/07/04 09:23:24;;;;;;;7.40;3.70;;;25.10;87.20;;;;;;4974896;28;21022;-72
2023/07/04 09:25:56;;;;;;;10.20;3.90;;;25.20;86.70;;;;;;4974955;28;20516;-71
2023/07/04 09:28:23;;;;;;;8.37;4.10;;;25.30;87.50;;;;;;4974929;28;20465;-71
2023/07/04 09:30:50;;;;;;;7.60;3.70;;;25.30;87.00;;;;;;4975281;28;20461;-71
2023/07/04 09:33:17;;;;;;;6.00;3.33;;;25.50;87.00;;;;;;4974658;28;20466;-71
2023/07/04 09:38:27;;;;;;;6.87;4.07;;;25.30;85.80;;;;;;4974020;28;20476;-72
2023/07/04 09:40:55;;;;;;;9.83;4.53;;;25.20;86.30;;;;;;4974635;28;20489;-70
2023/07/04 09:43:30;;;;;;;6.50;4.07;;;25.10;84.90;;;;;;4974409;28;20457;-72
2023/07/04 09:46:18;;;;;;;7.77;3.83;;;25.10;85.90;;;;;;4974511;28;20882;-72
2023/07/04 09:48:45;;;;;;;6.57;3.30;;;25.10;87.70;;;;;;4974362;28;21022;-71
2023/07/04 09:51:27;;;;;;;7.43;4.27;;;25.00;85.70;;;;;;4974339;28;20512;-72
2023/07/04 09:54:13;;;;;;;5.53;3.57;;;24.80;86.40;;;;;;4974577;28;20457;-73
2023/07/04 09:56:43;;;;;;;7.17;4.03;;;25.00;88.00;;;;;;4974721;28;20449;-71
2023/07/04 09:59:13;;;;;;;12.63;3.80;;;25.10;86.30;;;;;;4974379;28;20838;-73
2023/07/04 10:01:41;;;;;;;9.93;4.70;;;25.00;84.90;;;;;;4974359;28;21010;-74
2023/07/04 10:04:10;;;;;;;8.20;4.13;;;24.90;85.10;;;;;;4974262;28;20523;-72
2023/07/04 10:06:43;;;;;;;10.90;3.70;;;25.00;85.30;;;;;;4974708;28;20524;-72
2023/07/04 10:09:21;;;;;;;7.70;4.30;;;25.20;86.20;;;;;;4974696;28;20982;-71
2023/07/04 10:11:50;;;;;;;11.37;4.17;;;25.50;84.90;;;;;;4974153;28;20469;-73
2023/07/04 10:14:32;;;;;;;6.70;3.40;;;25.60;85.50;;;;;;4973572;28;20457;-73
2023/07/04 10:17:09;;;;;;;11.63;4.43;;;25.50;85.80;;;;;;4973932;28;20493;-73
2023/07/04 10:19:41;;;;;;;8.33;4.03;;;25.40;86.00;;;;;;4973970;28;20461;-72
2023/07/04 10:22:08;;;;;;;7.53;4.20;;;25.30;85.80;;;;;;4973839;28;20576;-72
2023/07/04 10:24:38;;;;;;;6.10;4.00;;;25.00;86.80;;;;;;4972356;28;20457;-73
2023/07/04 10:27:10;;;;;;;8.77;4.10;;;24.80;87.50;;;;;;4973850;28;20956;-72
2023/07/04 10:29:42;;;;;;;7.43;3.90;;;24.50;88.10;;;;;;4973820;28;20561;-73
2023/07/04 10:32:14;;;;;;;7.50;3.50;;;24.50;88.60;;;;;;4973765;28;20512;-73
2023/07/04 10:34:43;;;;;;;6.67;3.70;;;24.50;89.10;;;;;;4973790;28;20520;-72
2023/07/04 10:37:23;;;;;;;6.33;3.33;;;24.50;88.20;;;;;;4973545;28;21066;-74
2023/07/04 10:39:57;;;;;;;6.67;3.90;;;24.30;89.60;;;;;;4973728;28;20476;-72
2023/07/04 10:42:29;;;;;;;7.20;3.60;;;24.40;89.10;;;;;;4973689;28;20485;-74
2023/07/04 10:44:57;;;;;;;6.43;3.53;;;24.20;88.20;;;;;;4973422;28;20457;-73
2023/07/04 10:47:27;;;;;;;10.90;4.00;;;24.10;89.10;;;;;;4972420;28;20454;-72
2023/07/04 10:49:59;;;;;;;6.27;3.90;;;24.10;89.20;;;;;;4973323;28;20540;-74
2023/07/04 10:52:31;;;;;;;7.03;3.60;;;24.10;90.10;;;;;;4973661;28;20461;-73
2023/07/04 10:55:01;;;;;;;6.07;3.57;;;24.20;90.40;;;;;;4973685;28;20465;-73
2023/07/04 10:57:35;;;;;;;9.00;3.70;;;24.10;89.90;;;;;;4973123;28;20480;-73
2023/07/04 11:00:13;;;;;;;7.73;3.83;;;24.10;90.30;;;;;;4973355;28;20468;-72
2023/07/04 11:02:45;;;;;;;7.70;3.93;;;24.00;90.20;;;;;;4973203;28;20528;-73
2023/07/04 11:05:15;;;;;;;7.53;3.67;;;24.30;90.80;;;;;;4973111;28;20990;-73
2023/07/04 11:07:44;;;;;;;7.83;4.20;;;24.50;90.60;;;;;;4973230;28;20457;-72
2023/07/04 11:10:15;;;;;;;8.60;4.07;;;24.90;89.10;;;;;;4972946;28;20468;-74
2023/07/04 11:12:42;;;;;;;6.27;3.60;;;25.60;88.30;;;;;;4973201;28;20536;-74
2023/07/04 11:15:23;;;;;;;6.27;3.63;;;26.00;85.70;;;;;;4972907;28;20497;-73
2023/07/04 11:17:51;;;;;;;5.83;3.50;;;26.10;85.20;;;;;;4973028;28;20640;-73
2023/07/04 11:20:22;;;;;;;6.27;3.50;;;25.90;85.20;;;;;;4972773;28;20553;-73
2023/07/04 11:23:00;;;;;;;6.47;3.50;;;25.50;86.80;;;;;;4972927;28;20485;-76
2023/07/04 11:25:53;;;;;;;8.10;4.30;;;25.40;87.00;;;;;;4972832;28;20457;-73
2023/07/04 11:28:26;;;;;;;6.80;3.70;;;25.50;87.90;;;;;;4973281;28;20524;-75
2023/07/04 11:31:08;;;;;;;9.93;3.77;;;25.40;86.30;;;;;;4973513;28;20516;-75
2023/07/04 11:33:39;;;;;;;9.40;3.80;;;25.30;84.60;;;;;;4972815;28;20967;-74
2023/07/04 11:36:09;;;;;;;6.30;3.73;;;25.30;85.50;;;;;;4971420;28;20500;-75
2023/07/04 11:38:44;;;;;;;5.33;3.37;;;25.20;85.70;;;;;;4971564;28;20461;-75
2023/07/04 11:41:14;;;;;;;5.33;3.67;;;25.30;86.20;;;;;;4971294;28;21211;-74
2023/07/04 11:43:48;;;;;;;10.73;4.23;;;25.40;86.10;;;;;;4971572;28;20469;-75
2023/07/04 11:46:25;;;;;;;8.77;4.30;;;25.50;85.30;;;;;;4972839;28;20484;-74
2023/07/04 11:48:55;;;;;;;8.97;4.20;;;26.00;84.80;;;;;;4972779;28;20464;-74
2023/07/04 11:51:25;;;;;;;8.93;3.93;;;26.10;84.60;;;;;;4972650;28;20476;-74
2023/07/04 11:53:57;;;;;;;6.80;3.50;;;26.30;83.60;;;;;;4972734;28;20549;-73
2023/07/04 11:56:41;;;;;;;6.10;3.67;;;26.30;84.30;;;;;;4972528;28;20457;-74
2023/07/04 11:59:42;;;;;;;5.70;3.40;;;26.10;85.10;;;;;;4972581;28;20469;-68
2023/07/04 12:02:15;;;;;;;7.87;4.20;;;26.20;86.50;;;;;;4970432;28;20489;-68
2023/07/04 12:04:49;;;;;;;6.80;3.80;;;26.60;84.80;;;;;;4972372;28;20511;-68
2023/07/04 12:07:44;;;;;;;6.37;3.50;;;26.80;84.50;;;;;;4972342;28;20511;-65
2023/07/04 12:10:17;;;;;;;7.40;3.97;;;27.20;81.90;;;;;;4971017;28;20955;-65
2023/07/04 12:12:46;;;;;;;7.43;4.00;;;27.30;82.70;;;;;;4972308;28;20504;-65
2023/07/04 12:15:19;;;;;;;6.57;3.60;;;27.00;82.30;;;;;;4972205;28;20461;-65
2023/07/04 12:17:48;;;;;;;6.27;3.40;;;27.30;82.40;;;;;;4972352;28;20461;-69
2023/07/04 12:20:17;;;;;;;8.30;4.27;;;28.10;81.20;;;;;;4972146;28;20496;-66
2023/07/04 12:22:51;;;;;;;8.03;3.67;;;28.60;79.60;;;;;;4972361;28;20492;-65
2023/07/04 12:25:24;;;;;;;7.63;3.80;;;29.10;79.10;;;;;;4972674;28;20461;-66
2023/07/04 12:27:56;;;;;;;6.27;3.90;;;29.30;76.30;;;;;;4972970;28;20456;-71
2023/07/04 12:30:24;;;;;;;6.07;3.70;;;29.50;77.00;;;;;;4973109;28;20462;-72
2023/07/04 12:32:52;;;;;;;5.37;3.17;;;29.90;77.30;;;;;;4972727;28;20988;-73
2023/07/04 12:35:21;;;;;;;4.40;3.10;;;30.00;75.20;;;;;;4973060;28;20504;-73
2023/07/04 12:37:51;;;;;;;5.07;3.30;;;30.40;74.60;;;;;;4974518;28;20465;-74
2023/07/04 12:40:21;;;;;;;5.50;3.20;;;30.90;73.90;;;;;;4976843;28;20457;-74
2023/07/04 12:42:48;;;;;;;13.70;3.83;;;31.10;73.00;;;;;;4975870;28;21049;-74
2023/07/04 12:45:21;;;;;;;5.90;3.43;;;31.10;72.60;;;;;;4976005;28;20516;-74
2023/07/04 12:47:50;;;;;;;5.97;3.60;;;31.20;72.50;;;;;;4975970;28;20471;-73
2023/07/04 12:50:19;;;;;;;7.60;3.63;;;31.20;72.80;;;;;;4975639;28;20895;-74
2023/07/04 12:52:48;;;;;;;8.70;3.63;;;31.20;72.00;;;;;;4975852;28;20515;-73
2023/07/04 12:55:29;;;;;;;11.17;3.80;;;30.60;72.80;;;;;;4974935;28;20461;-73
2023/07/04 12:58:00;;;;;;;8.93;4.00;;;30.70;73.60;;;;;;4975476;28;21039;-74
2023/07/04 13:00:31;;;;;;;5.57;3.53;;;30.90;72.80;;;;;;4975881;28;20877;-73
2023/07/04 13:03:01;;;;;;;8.50;4.00;;;31.20;72.70;;;;;;4975196;28;20485;-74
2023/07/04 13:05:42;;;;;;;6.73;3.77;;;31.40;73.20;;;;;;4975367;28;20491;-73